Flight Track Log - Related Links

Times and Time Zones

All times are in EDT time to prevent confusion due to time zone crossing. See the SWA3942 flight status page for this flight to view local times or setup timezone preferences in your user account.

Time Position Orientation Groundspeed Altitude Reporting Facility
EDT Latitude Longitude Course Direction KTS MPH feet Rate Location/Type
Fri 07:44:38 PM 38.7333 -90.2333 90° East 231 266 4,300  Level Gateway (St. Louis) TRACON
Fri 07:45:36 PM 38.7303 -90.1550 93° East 241 277 6,100 2,218 Climbing Kansas City Center
Fri 07:46:37 PM 38.7408 -90.0481 83° East 292 336 8,700 2,311 Climbing Kansas City Center
Fri 07:47:38 PM 38.7528 -89.9272 83° East 330 380 10,800 2,459 Climbing Kansas City Center
Fri 07:48:39 PM 38.7661 -89.7900 83° East 374 430 13,700 2,066 Climbing Kansas City Center
Fri 07:49:40 PM 38.7817 -89.6250 83° East 395 455 15,000 1,317 Climbing Kansas City Center
Fri 07:50:42 PM 38.7950 -89.4828 83° East 400 460 16,400 1,854 Climbing Kansas City Center
Fri 07:51:43 PM 38.8142 -89.3372 80° East 415 478 18,800 2,508 Climbing Kansas City Center
Fri 07:52:44 PM 38.8358 -89.1614 81° East 461 531 21,500 2,705 Climbing Kansas City Center
Fri 07:53:45 PM 38.8564 -88.9992 81° East 462 532 24,300 2,213 Climbing Kansas City Center
Fri 07:54:46 PM 38.8794 -88.8453 79° East 467 537 26,000 1,525 Climbing Kansas City Center
Fri 07:55:47 PM 38.9014 -88.6681 81° East 497 572 27,400 1,854 Climbing Kansas City Center
Fri 07:56:49 PM 38.9231 -88.4931 81° East 506 582 29,800 2,293 Climbing Kansas City Center
Fri 07:57:50 PM 38.9683 -88.3225 71° East 500 575 32,100 2,146 Climbing Kansas City Center
Fri 07:58:52 PM 39.0206 -88.1242 71° East 496 571 34,200 1,935 Climbing Indianapolis Center
Fri 07:59:54 PM 39.0667 -87.9558 71° East 495 570 36,100 1,610 Climbing Indianapolis Center
Fri 08:00:55 PM 39.1111 -87.7922 71° East 485 558 37,500 1,220 Climbing Indianapolis Center
Fri 08:01:57 PM 39.1589 -87.6200 70° East 484 557 38,600 732 Climbing Indianapolis Center
Fri 08:02:58 PM 39.2081 -87.4550 69° East 493 567 39,000 195 Climbing Indianapolis Center
Fri 08:04:00 PM 39.2758 -87.2992 61° Northeast 501 577 39,000  Level Indianapolis Center
Fri 08:05:01 PM 39.3411 -87.1442 61° Northeast 496 571 39,000  Level Indianapolis Center
Fri 08:06:02 PM 39.4064 -86.9864 62° Northeast 498 573 39,000  Level Indianapolis Center
Fri 08:07:04 PM 39.4711 -86.8314 62° Northeast 494 568 39,000  Level Indianapolis Center
Fri 08:08:05 PM 39.5356 -86.6750 62° Northeast 494 568 39,000  Level Indianapolis Center
Fri 08:09:07 PM 39.5981 -86.5203 62° Northeast 487 560 39,000  Level Indianapolis Center
Fri 08:10:08 PM 39.6606 -86.3678 62° Northeast 485 558 39,000  Level Indianapolis Center
Fri 08:11:10 PM 39.7403 -86.1708 62° Northeast 489 563 39,000  Level Indianapolis Center
Fri 08:12:11 PM 39.7944 -86.0383 62° Northeast 484 557 39,000  Level Indianapolis Center
Fri 08:13:13 PM 39.8564 -85.8856 62° Northeast 481 554 39,000  Level Indianapolis Center
Fri 08:14:14 PM 39.9294 -85.7017 63° Northeast 478 550 39,000  Level Indianapolis Center
Fri 08:15:16 PM 39.9900 -85.5483 63° Northeast 479 551 39,000  Level Indianapolis Center
Fri 08:16:17 PM 40.0519 -85.3942 62° Northeast 481 554 39,000  Level Indianapolis Center
Fri 08:17:18 PM 40.1128 -85.2394 63° Northeast 480 552 39,000  Level Indianapolis Center
Fri 08:18:20 PM 40.1736 -85.0836 63° Northeast 483 556 39,000  Level Indianapolis Center
Fri 08:19:21 PM 40.2347 -84.9275 63° Northeast 484 557 39,000  Level Indianapolis Center
Fri 08:20:23 PM 40.3028 -84.7553 63° Northeast 489 563 39,000  Level Indianapolis Center
Fri 08:21:24 PM 40.3631 -84.5967 63° Northeast 481 554 39,000  Level Indianapolis Center
Fri 08:22:26 PM 40.4239 -84.4367 63° Northeast 483 556 39,000  Level Indianapolis Center
Fri 08:23:27 PM 40.4850 -84.2764 63° Northeast 484 557 39,000  Level Indianapolis Center
Fri 08:24:28 PM 40.5447 -84.1167 64° Northeast 482 555 39,000  Level Indianapolis Center
Fri 08:25:30 PM 40.6058 -83.9575 63° Northeast 481 554 39,000  Level Indianapolis Center
Fri 08:26:31 PM 40.6650 -83.7967 64° Northeast 482 555 39,000  Level Indianapolis Center
Fri 08:27:33 PM 40.7253 -83.6372 63° Northeast 482 555 39,000  Level Indianapolis Center
Fri 08:28:34 PM 40.7875 -83.4683 64° Northeast 482 555 39,000  Level Indianapolis Center
Fri 08:29:36 PM 40.8467 -83.3072 64° Northeast 482 555 39,000  Level Indianapolis Center
Fri 08:30:28 PM 40.9011 -83.1544 65° Northeast 474 545 39,000  Level Cleveland Center
Fri 08:31:28 PM 40.9336 -83.0044 74° East 468 539 39,000  Level Cleveland Center
Fri 08:32:28 PM 40.9703 -82.8381 74° East 463 533 39,000  Level Cleveland Center
Fri 08:33:28 PM 41.0028 -82.6742 75° East 463 533 39,000  Level Cleveland Center
Fri 08:34:28 PM 41.0369 -82.5100 75° East 463 533 39,000  Level Cleveland Center
Fri 08:35:28 PM 41.0708 -82.3431 75° East 463 533 39,000  Level Cleveland Center
Fri 08:36:28 PM 41.1044 -82.1786 75° East 463 533 39,000  Level Cleveland Center
Fri 08:37:28 PM 41.1425 -81.9894 75° East 471 542 39,000  Level Cleveland Center
Fri 08:38:28 PM 41.1756 -81.8244 75° East 471 542 39,000  Level Cleveland Center
Fri 08:39:28 PM 41.2086 -81.6594 75° East 471 542 39,000  Level Cleveland Center
Fri 08:40:28 PM 41.2433 -81.4944 74° East 466 536 39,000  Level Cleveland Center
Fri 08:41:28 PM 41.2675 -81.3428 78° East 461 531 39,000  Level Cleveland Center
Fri 08:42:28 PM 41.2997 -81.1800 75° East 461 531 39,000  Level Cleveland Center
Fri 08:43:28 PM 41.3317 -81.0144 76° East 456 525 39,000  Level Cleveland Center
Fri 08:44:28 PM 41.3572 -80.8486 78° East 456 525 39,000  Level Cleveland Center
Fri 08:45:28 PM 41.3681 -80.6633 85° East 451 519 39,000  Level Cleveland Center
Fri 08:46:28 PM 41.3806 -80.4972 84° East 451 519 39,000  Level Cleveland Center
Fri 08:47:28 PM 41.3928 -80.3286 84° East 451 519 39,000  Level Cleveland Center
Fri 08:48:28 PM 41.4006 -80.1653 86° East 445 512 39,000  Level Cleveland Center
Fri 08:49:28 PM 41.4103 -80.0017 85° East 445 512 39,000  Level Cleveland Center
Fri 08:50:28 PM 41.4200 -79.8550 85° East 440 506 39,000  Level Cleveland Center
Fri 08:51:28 PM 41.4269 -79.6942 87° East 440 506 39,000  Level Cleveland Center
Fri 08:52:28 PM 41.4361 -79.5333 86° East 440 506 39,000  Level Cleveland Center
Fri 08:53:28 PM 41.4450 -79.3697 86° East 440 506 39,000  Level Cleveland Center
Fri 08:54:28 PM 41.4556 -79.2089 85° East 440 506 39,000  Level Cleveland Center
Fri 08:55:28 PM 41.4639 -79.0453 86° East 440 506 39,000  Level Cleveland Center
Fri 08:56:28 PM 41.4594 -78.8792 92° East 440 506 39,000  Level Cleveland Center
Fri 08:57:28 PM 41.4508 -78.7131 94° East 440 506 39,000  Level Cleveland Center
Fri 08:59:16 PM 41.4372 -78.4231 93° East 464 534 39,000 -464 Level New York Center
Fri 09:00:16 PM 41.4272 -78.2531 94° East 464 534 37,700 -2,050 Descending New York Center
Fri 09:01:16 PM 41.4189 -78.0889 94° East 464 534 34,900 -3,000 Descending New York Center
Fri 09:02:18 PM 41.4086 -77.9133 94° East 464 534 31,600 -1,950 Descending New York Center
Fri 09:03:16 PM 41.3978 -77.7436 95° East 464 534 31,000 -305 Descending New York Center
Fri 09:04:16 PM 41.3850 -77.5706 96° East 464 534 31,000  Level New York Center
Fri 09:05:17 PM 41.3561 -77.3825 102° East 469 540 31,000  Level New York Center
Fri 09:06:18 PM 41.3278 -77.2139 103° East 469 540 31,000  Level New York Center
Fri 09:07:15 PM 41.3017 -77.0428 101° East 469 540 31,000  Level New York Center
Fri 09:08:16 PM 41.2731 -76.8719 103° East 474 545 31,000 -496 Level New York Center
Fri 09:09:16 PM 41.2464 -76.6983 101° East 479 551 30,000 -2,231 Descending New York Center
Fri 09:10:17 PM 41.2192 -76.5303 102° East 479 551 26,500 -3,250 Descending New York Center
Fri 09:11:16 PM 41.1931 -76.3792 103° East 474 545 23,500 -2,900 Descending New York Center
Fri 09:12:17 PM 41.1653 -76.2144 103° East 469 540 20,700 -1,967 Descending New York Center
Fri 09:13:18 PM 41.1411 -76.0581 102° East 445 512 19,500 -1,160 Descending New York Center
Fri 09:14:16 PM 41.1003 -75.8981 109° East 422 486 18,400 -1,513 Descending New York Center
Fri 09:15:17 PM 41.0622 -75.7658 111° Southeast 422 486 16,500 -1,918 Descending New York Center
Fri 09:16:18 PM 41.0228 -75.6114 109° East 411 473 14,500 -1,513 Descending New York Center
Fri 09:17:16 PM 40.9844 -75.4769 111° Southeast 397 457 13,500 -1,160 Descending New York Center
Fri 09:18:17 PM 40.9517 -75.3592 110° East 391 450 12,200 -1,500 Descending New York Center
Fri 09:19:16 PM 40.9111 -75.2192 111° Southeast 378 435 10,500 -1,261 Descending New York Center
Fri 09:20:16 PM 40.8800 -75.1072 110° East 339 390 9,700 -1,200 Descending New York Center
Fri 09:21:16 PM 40.8522 -75.0067 110° East 308 354 8,100 -1,339 Descending New York Center
Fri 09:22:17 PM 40.8225 -74.9036 111° Southeast 298 343 7,000 -950 Descending New York Center
Fri 09:23:16 PM 40.8472 -74.7981 73° East 284 327 6,200 -500 Descending New York Center
Fri 09:24:17 PM 40.8817 -74.6986 65° Northeast 279 321 6,000 -807 Descending New York Center
Fri 09:25:15 PM 40.9017 -74.5981 75° East 284 327 4,600 -1,412 Descending New York Center
Fri 09:26:16 PM 40.9197 -74.4919 77° East 284 327 3,200 -793 Descending New York Center
Fri 09:27:16 PM 40.9394 -74.3942 75° East 284 327 3,000 -125 Descending New York Center
Fri 09:27:52 PM 40.9500 -74.3500 72° East 247 284 3,000  Level New York TRACON
Fri 09:30:17 PM 40.9928 -74.1358 75° East 238 274 3,000  Level New York Center
Fri 09:30:52 PM 40.9833 -74.1000 109° East 248 285 3,000  Level New York TRACON
Fri 09:31:52 PM 40.9167 -74.0667 159° South 217 250 3,000  Level New York TRACON
Fri 09:32:52 PM 40.8667 -74.0500 166° South 177 204 3,000 -100 Level New York TRACON
Fri 09:33:52 PM 40.8333 -74.0833 217° Southwest 167 192 2,800 -526 Descending New York TRACON
Fri 09:34:46 PM 40.7833 -74.1000 194° South 169 194 2,000 -850 Descending New York TRACON
Fri 09:35:52 PM 40.7500 -74.1333 217° Southwest 129 148 1,100 -714 Descending New York TRACON
Fri 09:36:52 PM 40.7167 -74.1500 201° Southwest 127 146 500 -600 Descending New York TRACON
Fri 09:38:00 PM 40.6925 -74.1687 187° South  Level Estimated
Fri 09:45:00 PM 40.6925 -74.1687 187° South  Level Estimated
Fri 09:46:00 PM 40.6925 -74.1687 187° South  Level Estimated
Fri 09:47:00 PM 40.6925 -74.1687 187° South  Level Estimated
Fri 09:48:00 PM 40.6925 -74.1687 187° South  Level Estimated

Login

Don't have an account? Register now (free) for customized features, flight alerts, and more!